sensor_id;sensor_type;location;lat;lon;timestamp;P1;durP1;ratioP1;P2;durP2;ratioP2
39958;SDS011;25639;53.634;9.880;2023-04-15T00:00:50;7.75;;;5.00;;
39958;SDS011;25639;53.634;9.880;2023-04-15T00:03:16;8.57;;;5.47;;
39958;SDS011;25639;53.634;9.880;2023-04-15T00:05:41;8.07;;;5.22;;
39958;SDS011;25639;53.634;9.880;2023-04-15T00:08:07;7.65;;;4.50;;
39958;SDS011;25639;53.634;9.880;2023-04-15T00:10:32;9.90;;;5.43;;
39958;SDS011;25639;53.634;9.880;2023-04-15T00:12:57;7.30;;;4.78;;
39958;SDS011;25639;53.634;9.880;2023-04-15T00:15:23;10.50;;;5.03;;
39958;SDS011;25639;53.634;9.880;2023-04-15T00:17:49;8.48;;;4.97;;
39958;SDS011;25639;53.634;9.880;2023-04-15T00:20:15;7.43;;;5.38;;
39958;SDS011;25639;53.634;9.880;2023-04-15T00:22:41;7.55;;;4.80;;
39958;SDS011;25639;53.634;9.880;2023-04-15T00:25:07;8.60;;;5.20;;
39958;SDS011;25639;53.634;9.880;2023-04-15T00:27:33;8.60;;;5.00;;
39958;SDS011;25639;53.634;9.880;2023-04-15T00:29:59;10.05;;;4.97;;
39958;SDS011;25639;53.634;9.880;2023-04-15T00:32:24;9.20;;;5.38;;
39958;SDS011;25639;53.634;9.880;2023-04-15T00:34:49;9.35;;;5.05;;
39958;SDS011;25639;53.634;9.880;2023-04-15T00:37:15;9.63;;;5.30;;
39958;SDS011;25639;53.634;9.880;2023-04-15T00:39:40;7.55;;;4.85;;
39958;SDS011;25639;53.634;9.880;2023-04-15T00:42:05;8.98;;;5.43;;
39958;SDS011;25639;53.634;9.880;2023-04-15T00:44:31;9.57;;;6.25;;
39958;SDS011;25639;53.634;9.880;2023-04-15T00:46:57;8.43;;;5.38;;
39958;SDS011;25639;53.634;9.880;2023-04-15T00:49:24;9.45;;;5.88;;
39958;SDS011;25639;53.634;9.880;2023-04-15T00:51:49;10.07;;;6.38;;
39958;SDS011;25639;53.634;9.880;2023-04-15T00:54:15;10.18;;;6.55;;
39958;SDS011;25639;53.634;9.880;2023-04-15T00:56:40;10.95;;;6.55;;
39958;SDS011;25639;53.634;9.880;2023-04-15T00:59:06;9.98;;;6.25;;
39958;SDS011;25639;53.634;9.880;2023-04-15T01:01:33;11.95;;;7.13;;
39958;SDS011;25639;53.634;9.880;2023-04-15T01:04:02;13.18;;;7.88;;
39958;SDS011;25639;53.634;9.880;2023-04-15T01:06:28;13.02;;;7.18;;
39958;SDS011;25639;53.634;9.880;2023-04-15T01:08:55;12.23;;;7.95;;
39958;SDS011;25639;53.634;9.880;2023-04-15T01:11:22;11.57;;;7.50;;
39958;SDS011;25639;53.634;9.880;2023-04-15T01:13:48;12.05;;;7.28;;
39958;SDS011;25639;53.634;9.880;2023-04-15T01:16:14;13.13;;;8.20;;
39958;SDS011;25639;53.634;9.880;2023-04-15T01:18:40;12.30;;;7.55;;
39958;SDS011;25639;53.634;9.880;2023-04-15T01:21:06;18.05;;;7.57;;
39958;SDS011;25639;53.634;9.880;2023-04-15T01:23:32;12.43;;;7.75;;
39958;SDS011;25639;53.634;9.880;2023-04-15T01:26:00;12.95;;;7.93;;
39958;SDS011;25639;53.634;9.880;2023-04-15T01:28:27;12.18;;;7.97;;
39958;SDS011;25639;53.634;9.880;2023-04-15T01:31:06;11.93;;;8.35;;
39958;SDS011;25639;53.634;9.880;2023-04-15T01:33:32;13.05;;;8.30;;
39958;SDS011;25639;53.634;9.880;2023-04-15T01:35:57;11.27;;;7.88;;
39958;SDS011;25639;53.634;9.880;2023-04-15T01:38:23;13.93;;;7.97;;
39958;SDS011;25639;53.634;9.880;2023-04-15T01:40:49;11.98;;;7.65;;
39958;SDS011;25639;53.634;9.880;2023-04-15T01:43:15;14.05;;;8.48;;
39958;SDS011;25639;53.634;9.880;2023-04-15T01:45:40;12.13;;;7.88;;
39958;SDS011;25639;53.634;9.880;2023-04-15T01:48:05;11.60;;;7.20;;
39958;SDS011;25639;53.634;9.880;2023-04-15T01:50:31;13.38;;;8.13;;
39958;SDS011;25639;53.634;9.880;2023-04-15T01:52:56;12.40;;;7.63;;
39958;SDS011;25639;53.634;9.880;2023-04-15T01:55:22;12.00;;;7.45;;
39958;SDS011;25639;53.634;9.880;2023-04-15T01:57:47;12.45;;;7.70;;
39958;SDS011;25639;53.634;9.880;2023-04-15T02:00:12;11.50;;;7.38;;
39958;SDS011;25639;53.634;9.880;2023-04-15T02:02:38;13.10;;;7.20;;
39958;SDS011;25639;53.634;9.880;2023-04-15T02:05:04;12.85;;;7.30;;
39958;SDS011;25639;53.634;9.880;2023-04-15T02:07:29;13.73;;;7.55;;
39958;SDS011;25639;53.634;9.880;2023-04-15T02:09:56;11.55;;;6.93;;
39958;SDS011;25639;53.634;9.880;2023-04-15T02:12:21;11.18;;;7.65;;
39958;SDS011;25639;53.634;9.880;2023-04-15T02:14:46;12.18;;;7.45;;
39958;SDS011;25639;53.634;9.880;2023-04-15T02:17:12;14.18;;;8.13;;
39958;SDS011;25639;53.634;9.880;2023-04-15T02:19:37;10.05;;;6.60;;
39958;SDS011;25639;53.634;9.880;2023-04-15T02:22:03;10.95;;;7.03;;
39958;SDS011;25639;53.634;9.880;2023-04-15T02:24:28;10.07;;;7.05;;
39958;SDS011;25639;53.634;9.880;2023-04-15T02:26:55;12.98;;;7.47;;
39958;SDS011;25639;53.634;9.880;2023-04-15T02:29:21;14.00;;;7.78;;
39958;SDS011;25639;53.634;9.880;2023-04-15T02:31:49;13.88;;;7.75;;
39958;SDS011;25639;53.634;9.880;2023-04-15T02:34:14;11.70;;;7.43;;
39958;SDS011;25639;53.634;9.880;2023-04-15T02:36:40;13.40;;;7.80;;
39958;SDS011;25639;53.634;9.880;2023-04-15T02:39:05;11.57;;;7.68;;
39958;SDS011;25639;53.634;9.880;2023-04-15T02:41:31;13.60;;;7.72;;
39958;SDS011;25639;53.634;9.880;2023-04-15T02:43:56;13.02;;;7.88;;
39958;SDS011;25639;53.634;9.880;2023-04-15T02:46:21;12.80;;;7.90;;
39958;SDS011;25639;53.634;9.880;2023-04-15T02:48:47;12.27;;;7.28;;
39958;SDS011;25639;53.634;9.880;2023-04-15T02:51:17;10.93;;;6.80;;
39958;SDS011;25639;53.634;9.880;2023-04-15T02:53:44;12.23;;;8.05;;
39958;SDS011;25639;53.634;9.880;2023-04-15T02:56:10;13.43;;;8.25;;
39958;SDS011;25639;53.634;9.880;2023-04-15T02:58:36;12.35;;;7.88;;
39958;SDS011;25639;53.634;9.880;2023-04-15T03:01:02;12.25;;;8.02;;
39958;SDS011;25639;53.634;9.880;2023-04-15T03:03:27;15.07;;;9.60;;
39958;SDS011;25639;53.634;9.880;2023-04-15T03:05:53;14.15;;;8.88;;
39958;SDS011;25639;53.634;9.880;2023-04-15T03:08:18;13.57;;;8.85;;
39958;SDS011;25639;53.634;9.880;2023-04-15T03:10:44;15.40;;;9.15;;
39958;SDS011;25639;53.634;9.880;2023-04-15T03:13:09;16.58;;;9.63;;
39958;SDS011;25639;53.634;9.880;2023-04-15T03:15:35;15.38;;;8.70;;
39958;SDS011;25639;53.634;9.880;2023-04-15T03:18:00;15.38;;;9.25;;
39958;SDS011;25639;53.634;9.880;2023-04-15T03:20:25;18.30;;;10.02;;
39958;SDS011;25639;53.634;9.880;2023-04-15T03:22:51;18.52;;;10.70;;
39958;SDS011;25639;53.634;9.880;2023-04-15T03:25:16;18.60;;;10.98;;
39958;SDS011;25639;53.634;9.880;2023-04-15T03:27:42;17.83;;;10.20;;
39958;SDS011;25639;53.634;9.880;2023-04-15T03:30:07;17.38;;;10.07;;
39958;SDS011;25639;53.634;9.880;2023-04-15T03:32:33;18.83;;;10.80;;
39958;SDS011;25639;53.634;9.880;2023-04-15T03:34:58;18.23;;;10.52;;
39958;SDS011;25639;53.634;9.880;2023-04-15T03:37:23;20.80;;;10.57;;
39958;SDS011;25639;53.634;9.880;2023-04-15T03:39:48;20.10;;;10.93;;
39958;SDS011;25639;53.634;9.880;2023-04-15T03:42:14;20.10;;;11.55;;
39958;SDS011;25639;53.634;9.880;2023-04-15T03:44:39;20.35;;;12.02;;
39958;SDS011;25639;53.634;9.880;2023-04-15T03:47:05;22.75;;;12.80;;
39958;SDS011;25639;53.634;9.880;2023-04-15T03:49:30;24.67;;;12.90;;
39958;SDS011;25639;53.634;9.880;2023-04-15T03:51:56;21.65;;;12.02;;
39958;SDS011;25639;53.634;9.880;2023-04-15T03:54:21;26.45;;;14.15;;
39958;SDS011;25639;53.634;9.880;2023-04-15T03:56:46;27.15;;;13.70;;
39958;SDS011;25639;53.634;9.880;2023-04-15T03:59:11;26.92;;;14.43;;
39958;SDS011;25639;53.634;9.880;2023-04-15T04:01:37;25.48;;;13.45;;
39958;SDS011;25639;53.634;9.880;2023-04-15T04:04:02;29.65;;;16.10;;
39958;SDS011;25639;53.634;9.880;2023-04-15T04:06:27;32.95;;;16.13;;
39958;SDS011;25639;53.634;9.880;2023-04-15T04:08:52;31.55;;;15.50;;
39958;SDS011;25639;53.634;9.880;2023-04-15T04:11:18;33.10;;;16.15;;
39958;SDS011;25639;53.634;9.880;2023-04-15T04:13:43;32.15;;;15.65;;
39958;SDS011;25639;53.634;9.880;2023-04-15T04:16:08;32.78;;;16.23;;
39958;SDS011;25639;53.634;9.880;2023-04-15T04:18:33;37.47;;;18.35;;
39958;SDS011;25639;53.634;9.880;2023-04-15T04:20:59;32.05;;;16.25;;
39958;SDS011;25639;53.634;9.880;2023-04-15T04:23:25;34.22;;;16.50;;
39958;SDS011;25639;53.634;9.880;2023-04-15T04:25:50;30.95;;;16.52;;
39958;SDS011;25639;53.634;9.880;2023-04-15T04:28:16;32.05;;;16.50;;
39958;SDS011;25639;53.634;9.880;2023-04-15T04:30:42;33.22;;;17.13;;
39958;SDS011;25639;53.634;9.880;2023-04-15T04:33:07;35.65;;;18.17;;
39958;SDS011;25639;53.634;9.880;2023-04-15T04:35:32;41.05;;;18.98;;
39958;SDS011;25639;53.634;9.880;2023-04-15T04:37:59;35.50;;;17.83;;
39958;SDS011;25639;53.634;9.880;2023-04-15T04:40:25;38.00;;;18.77;;
39958;SDS011;25639;53.634;9.880;2023-04-15T04:42:51;40.90;;;19.08;;
39958;SDS011;25639;53.634;9.880;2023-04-15T04:45:17;41.97;;;18.88;;
39958;SDS011;25639;53.634;9.880;2023-04-15T04:47:42;38.95;;;18.95;;
39958;SDS011;25639;53.634;9.880;2023-04-15T04:50:08;37.10;;;18.63;;
39958;SDS011;25639;53.634;9.880;2023-04-15T04:52:33;46.03;;;20.23;;
39958;SDS011;25639;53.634;9.880;2023-04-15T04:54:58;39.95;;;18.52;;
39958;SDS011;25639;53.634;9.880;2023-04-15T04:57:23;46.03;;;20.38;;
39958;SDS011;25639;53.634;9.880;2023-04-15T04:59:49;45.60;;;21.00;;
39958;SDS011;25639;53.634;9.880;2023-04-15T05:02:15;49.70;;;22.13;;
39958;SDS011;25639;53.634;9.880;2023-04-15T05:04:40;52.15;;;23.42;;
39958;SDS011;25639;53.634;9.880;2023-04-15T05:07:05;51.22;;;24.25;;
39958;SDS011;25639;53.634;9.880;2023-04-15T05:09:31;54.88;;;23.58;;
39958;SDS011;25639;53.634;9.880;2023-04-15T05:11:57;53.35;;;23.88;;
39958;SDS011;25639;53.634;9.880;2023-04-15T05:14:22;59.83;;;25.92;;
39958;SDS011;25639;53.634;9.880;2023-04-15T05:16:47;55.80;;;23.27;;
39958;SDS011;25639;53.634;9.880;2023-04-15T05:19:13;51.95;;;23.73;;
39958;SDS011;25639;53.634;9.880;2023-04-15T05:21:38;60.92;;;25.88;;
39958;SDS011;25639;53.634;9.880;2023-04-15T05:24:03;57.22;;;24.73;;
39958;SDS011;25639;53.634;9.880;2023-04-15T05:26:29;53.42;;;24.65;;
39958;SDS011;25639;53.634;9.880;2023-04-15T05:28:55;53.28;;;24.88;;
39958;SDS011;25639;53.634;9.880;2023-04-15T05:31:20;52.83;;;25.27;;
39958;SDS011;25639;53.634;9.880;2023-04-15T05:33:45;53.90;;;25.55;;
39958;SDS011;25639;53.634;9.880;2023-04-15T05:36:11;57.17;;;25.50;;
39958;SDS011;25639;53.634;9.880;2023-04-15T05:38:36;57.97;;;25.92;;
39958;SDS011;25639;53.634;9.880;2023-04-15T05:41:02;55.78;;;25.55;;
39958;SDS011;25639;53.634;9.880;2023-04-15T05:43:27;50.83;;;25.55;;
39958;SDS011;25639;53.634;9.880;2023-04-15T05:45:53;48.17;;;25.23;;
39958;SDS011;25639;53.634;9.880;2023-04-15T05:48:18;54.58;;;25.23;;
39958;SDS011;25639;53.634;9.880;2023-04-15T05:50:43;52.13;;;25.35;;
39958;SDS011;25639;53.634;9.880;2023-04-15T05:53:08;55.40;;;25.20;;
39958;SDS011;25639;53.634;9.880;2023-04-15T05:55:34;50.42;;;25.02;;
39958;SDS011;25639;53.634;9.880;2023-04-15T05:57:59;51.50;;;25.48;;
39958;SDS011;25639;53.634;9.880;2023-04-15T06:00:24;51.92;;;24.65;;
39958;SDS011;25639;53.634;9.880;2023-04-15T06:02:50;55.20;;;25.27;;
39958;SDS011;25639;53.634;9.880;2023-04-15T06:05:15;58.70;;;26.30;;
39958;SDS011;25639;53.634;9.880;2023-04-15T06:07:40;60.83;;;27.38;;
39958;SDS011;25639;53.634;9.880;2023-04-15T06:10:07;57.42;;;27.48;;
39958;SDS011;25639;53.634;9.880;2023-04-15T06:12:33;60.38;;;27.92;;
39958;SDS011;25639;53.634;9.880;2023-04-15T06:14:58;68.95;;;29.10;;
39958;SDS011;25639;53.634;9.880;2023-04-15T06:17:24;65.68;;;28.63;;
39958;SDS011;25639;53.634;9.880;2023-04-15T06:19:49;72.32;;;29.58;;
39958;SDS011;25639;53.634;9.880;2023-04-15T06:22:19;66.50;;;29.95;;
39958;SDS011;25639;53.634;9.880;2023-04-15T06:24:45;60.17;;;28.75;;
39958;SDS011;25639;53.634;9.880;2023-04-15T06:27:10;69.32;;;32.40;;
39958;SDS011;25639;53.634;9.880;2023-04-15T06:29:35;73.28;;;32.05;;
39958;SDS011;25639;53.634;9.880;2023-04-15T06:32:00;79.63;;;33.25;;
39958;SDS011;25639;53.634;9.880;2023-04-15T06:34:26;78.65;;;33.17;;
39958;SDS011;25639;53.634;9.880;2023-04-15T06:36:51;77.07;;;34.05;;
39958;SDS011;25639;53.634;9.880;2023-04-15T06:39:16;81.22;;;35.42;;
39958;SDS011;25639;53.634;9.880;2023-04-15T06:41:41;79.50;;;35.28;;
39958;SDS011;25639;53.634;9.880;2023-04-15T06:44:07;81.65;;;34.67;;
39958;SDS011;25639;53.634;9.880;2023-04-15T06:46:32;75.53;;;34.38;;
39958;SDS011;25639;53.634;9.880;2023-04-15T06:48:57;85.53;;;37.17;;
39958;SDS011;25639;53.634;9.880;2023-04-15T06:51:23;84.30;;;36.65;;
39958;SDS011;25639;53.634;9.880;2023-04-15T06:53:48;85.60;;;37.75;;
39958;SDS011;25639;53.634;9.880;2023-04-15T06:56:14;83.22;;;36.25;;
39958;SDS011;25639;53.634;9.880;2023-04-15T06:58:39;82.95;;;36.45;;
39958;SDS011;25639;53.634;9.880;2023-04-15T07:01:05;77.85;;;35.17;;
39958;SDS011;25639;53.634;9.880;2023-04-15T07:03:30;75.13;;;34.75;;
39958;SDS011;25639;53.634;9.880;2023-04-15T07:05:56;87.28;;;38.13;;
39958;SDS011;25639;53.634;9.880;2023-04-15T07:08:21;83.18;;;37.50;;
39958;SDS011;25639;53.634;9.880;2023-04-15T07:10:47;79.25;;;35.78;;
39958;SDS011;25639;53.634;9.880;2023-04-15T07:13:12;88.38;;;37.80;;
39958;SDS011;25639;53.634;9.880;2023-04-15T07:15:37;87.72;;;36.33;;
39958;SDS011;25639;53.634;9.880;2023-04-15T07:18:03;89.45;;;39.00;;
39958;SDS011;25639;53.634;9.880;2023-04-15T07:20:28;87.32;;;37.97;;
39958;SDS011;25639;53.634;9.880;2023-04-15T07:22:53;82.45;;;37.03;;
39958;SDS011;25639;53.634;9.880;2023-04-15T07:25:19;85.97;;;37.83;;
39958;SDS011;25639;53.634;9.880;2023-04-15T07:27:44;81.28;;;37.25;;
39958;SDS011;25639;53.634;9.880;2023-04-15T07:30:10;89.47;;;38.22;;
39958;SDS011;25639;53.634;9.880;2023-04-15T07:32:36;84.75;;;37.30;;
39958;SDS011;25639;53.634;9.880;2023-04-15T07:35:02;92.40;;;39.03;;
39958;SDS011;25639;53.634;9.880;2023-04-15T07:37:27;80.97;;;36.63;;
39958;SDS011;25639;53.634;9.880;2023-04-15T07:39:53;85.63;;;38.20;;
39958;SDS011;25639;53.634;9.880;2023-04-15T07:42:18;81.18;;;36.90;;
39958;SDS011;25639;53.634;9.880;2023-04-15T07:44:44;84.43;;;38.42;;
39958;SDS011;25639;53.634;9.880;2023-04-15T07:47:09;86.93;;;39.38;;
39958;SDS011;25639;53.634;9.880;2023-04-15T07:49:34;92.88;;;40.20;;
39958;SDS011;25639;53.634;9.880;2023-04-15T07:52:00;86.65;;;38.70;;
39958;SDS011;25639;53.634;9.880;2023-04-15T07:54:25;86.07;;;38.95;;
39958;SDS011;25639;53.634;9.880;2023-04-15T07:56:51;80.55;;;37.80;;
39958;SDS011;25639;53.634;9.880;2023-04-15T07:59:16;82.38;;;39.30;;
39958;SDS011;25639;53.634;9.880;2023-04-15T08:01:42;79.88;;;38.50;;
39958;SDS011;25639;53.634;9.880;2023-04-15T08:04:07;83.45;;;38.78;;
39958;SDS011;25639;53.634;9.880;2023-04-15T08:06:33;82.13;;;39.33;;
39958;SDS011;25639;53.634;9.880;2023-04-15T08:08:58;77.55;;;39.08;;
39958;SDS011;25639;53.634;9.880;2023-04-15T08:11:24;84.60;;;39.08;;
39958;SDS011;25639;53.634;9.880;2023-04-15T08:13:49;87.78;;;41.85;;
39958;SDS011;25639;53.634;9.880;2023-04-15T08:18:44;83.82;;;40.75;;
39958;SDS011;25639;53.634;9.880;2023-04-15T08:21:11;94.10;;;42.50;;
39958;SDS011;25639;53.634;9.880;2023-04-15T08:23:36;92.70;;;41.60;;
39958;SDS011;25639;53.634;9.880;2023-04-15T08:26:03;96.68;;;42.58;;
39958;SDS011;25639;53.634;9.880;2023-04-15T08:28:28;89.18;;;39.88;;
39958;SDS011;25639;53.634;9.880;2023-04-15T08:30:53;86.80;;;43.15;;
39958;SDS011;25639;53.634;9.880;2023-04-15T08:33:18;82.75;;;40.92;;
39958;SDS011;25639;53.634;9.880;2023-04-15T08:35:44;90.38;;;41.63;;
39958;SDS011;25639;53.634;9.880;2023-04-15T08:38:10;89.00;;;40.65;;
39958;SDS011;25639;53.634;9.880;2023-04-15T08:40:42;97.05;;;41.35;;
39958;SDS011;25639;53.634;9.880;2023-04-15T08:43:22;85.03;;;39.20;;
39958;SDS011;25639;53.634;9.880;2023-04-15T08:45:52;91.47;;;40.72;;
39958;SDS011;25639;53.634;9.880;2023-04-15T08:48:18;80.72;;;39.20;;
39958;SDS011;25639;53.634;9.880;2023-04-15T08:50:44;82.05;;;40.30;;
39958;SDS011;25639;53.634;9.880;2023-04-15T08:53:10;83.45;;;40.17;;
39958;SDS011;25639;53.634;9.880;2023-04-15T08:55:41;87.22;;;41.08;;
39958;SDS011;25639;53.634;9.880;2023-04-15T08:58:08;80.25;;;39.70;;
39958;SDS011;25639;53.634;9.880;2023-04-15T09:00:35;80.82;;;38.80;;
39958;SDS011;25639;53.634;9.880;2023-04-15T09:03:00;83.68;;;39.60;;
39958;SDS011;25639;53.634;9.880;2023-04-15T09:05:26;80.75;;;39.75;;
39958;SDS011;25639;53.634;9.880;2023-04-15T09:07:51;79.60;;;38.75;;
39958;SDS011;25639;53.634;9.880;2023-04-15T09:10:16;81.85;;;37.85;;
39958;SDS011;25639;53.634;9.880;2023-04-15T09:12:42;78.55;;;37.40;;
39958;SDS011;25639;53.634;9.880;2023-04-15T09:15:09;79.65;;;39.00;;
39958;SDS011;25639;53.634;9.880;2023-04-15T09:17:36;80.40;;;38.20;;
39958;SDS011;25639;53.634;9.880;2023-04-15T09:20:09;76.82;;;38.72;;
39958;SDS011;25639;53.634;9.880;2023-04-15T09:22:37;81.03;;;40.05;;
39958;SDS011;25639;53.634;9.880;2023-04-15T09:25:07;85.50;;;41.47;;
39958;SDS011;25639;53.634;9.880;2023-04-15T09:27:51;82.28;;;39.25;;
39958;SDS011;25639;53.634;9.880;2023-04-15T09:30:18;83.20;;;40.00;;
39958;SDS011;25639;53.634;9.880;2023-04-15T09:32:50;80.85;;;37.35;;
39958;SDS011;25639;53.634;9.880;2023-04-15T09:35:20;81.93;;;38.38;;
39958;SDS011;25639;53.634;9.880;2023-04-15T09:37:46;85.53;;;38.40;;
39958;SDS011;25639;53.634;9.880;2023-04-15T09:40:13;83.00;;;39.78;;
39958;SDS011;25639;53.634;9.880;2023-04-15T09:42:54;81.13;;;38.75;;
39958;SDS011;25639;53.634;9.880;2023-04-15T09:45:21;71.07;;;35.30;;
39958;SDS011;25639;53.634;9.880;2023-04-15T09:47:47;74.68;;;37.03;;
39958;SDS011;25639;53.634;9.880;2023-04-15T09:50:12;75.25;;;36.67;;
39958;SDS011;25639;53.634;9.880;2023-04-15T09:52:42;76.20;;;36.65;;
39958;SDS011;25639;53.634;9.880;2023-04-15T09:55:08;74.50;;;37.03;;
39958;SDS011;25639;53.634;9.880;2023-04-15T09:57:34;78.03;;;37.47;;
39958;SDS011;25639;53.634;9.880;2023-04-15T10:00:02;71.63;;;35.88;;
39958;SDS011;25639;53.634;9.880;2023-04-15T10:02:29;73.03;;;34.20;;
39958;SDS011;25639;53.634;9.880;2023-04-15T10:04:55;66.45;;;33.63;;
39958;SDS011;25639;53.634;9.880;2023-04-15T10:07:21;68.53;;;34.28;;
39958;SDS011;25639;53.634;9.880;2023-04-15T10:09:47;60.75;;;33.17;;
39958;SDS011;25639;53.634;9.880;2023-04-15T10:12:14;62.67;;;31.95;;
39958;SDS011;25639;53.634;9.880;2023-04-15T10:14:41;56.80;;;32.25;;
39958;SDS011;25639;53.634;9.880;2023-04-15T10:17:08;67.80;;;33.17;;
39958;SDS011;25639;53.634;9.880;2023-04-15T10:19:35;52.67;;;30.20;;
39958;SDS011;25639;53.634;9.880;2023-04-15T10:22:01;56.78;;;30.70;;
39958;SDS011;25639;53.634;9.880;2023-04-15T10:24:27;54.30;;;30.52;;
39958;SDS011;25639;53.634;9.880;2023-04-15T10:26:55;60.00;;;30.95;;
39958;SDS011;25639;53.634;9.880;2023-04-15T10:29:22;49.67;;;28.85;;
39958;SDS011;25639;53.634;9.880;2023-04-15T10:31:49;50.00;;;28.65;;
39958;SDS011;25639;53.634;9.880;2023-04-15T10:34:15;51.22;;;27.88;;
39958;SDS011;25639;53.634;9.880;2023-04-15T10:36:43;50.63;;;28.45;;
39958;SDS011;25639;53.634;9.880;2023-04-15T10:42:14;45.10;;;26.48;;
39958;SDS011;25639;53.634;9.880;2023-04-15T10:44:44;54.15;;;27.30;;
39958;SDS011;25639;53.634;9.880;2023-04-15T10:47:14;45.70;;;25.65;;
39958;SDS011;25639;53.634;9.880;2023-04-15T10:49:45;44.72;;;24.75;;
39958;SDS011;25639;53.634;9.880;2023-04-15T10:52:13;40.85;;;23.88;;
39958;SDS011;25639;53.634;9.880;2023-04-15T10:54:40;37.65;;;23.02;;
39958;SDS011;25639;53.634;9.880;2023-04-15T10:57:07;37.65;;;22.27;;
39958;SDS011;25639;53.634;9.880;2023-04-15T10:59:59;37.25;;;21.73;;
39958;SDS011;25639;53.634;9.880;2023-04-15T11:05:11;32.78;;;20.13;;
39958;SDS011;25639;53.634;9.880;2023-04-15T11:07:39;35.83;;;21.58;;
39958;SDS011;25639;53.634;9.880;2023-04-15T11:10:49;30.40;;;19.35;;
39958;SDS011;25639;53.634;9.880;2023-04-15T11:13:14;35.08;;;21.17;;
39958;SDS011;25639;53.634;9.880;2023-04-15T11:15:44;30.52;;;20.10;;
39958;SDS011;25639;53.634;9.880;2023-04-15T11:18:15;31.00;;;19.23;;
39958;SDS011;25639;53.634;9.880;2023-04-15T11:20:42;32.63;;;17.02;;
39958;SDS011;25639;53.634;9.880;2023-04-15T11:23:09;27.38;;;16.75;;
39958;SDS011;25639;53.634;9.880;2023-04-15T11:25:35;27.45;;;16.85;;
39958;SDS011;25639;53.634;9.880;2023-04-15T11:28:04;24.80;;;16.13;;
39958;SDS011;25639;53.634;9.880;2023-04-15T11:30:33;21.80;;;15.13;;
39958;SDS011;25639;53.634;9.880;2023-04-15T11:33:01;24.27;;;13.45;;
39958;SDS011;25639;53.634;9.880;2023-04-15T11:35:28;18.98;;;12.32;;
39958;SDS011;25639;53.634;9.880;2023-04-15T11:37:54;17.95;;;12.30;;
39958;SDS011;25639;53.634;9.880;2023-04-15T11:40:27;21.33;;;11.25;;
39958;SDS011;25639;53.634;9.880;2023-04-15T11:45:28;15.00;;;10.25;;
39958;SDS011;25639;53.634;9.880;2023-04-15T11:47:53;17.42;;;10.88;;
39958;SDS011;25639;53.634;9.880;2023-04-15T11:50:22;14.93;;;10.65;;
39958;SDS011;25639;53.634;9.880;2023-04-15T11:52:54;18.73;;;11.02;;
39958;SDS011;25639;53.634;9.880;2023-04-15T11:55:21;16.90;;;9.43;;
39958;SDS011;25639;53.634;9.880;2023-04-15T11:57:48;14.95;;;9.45;;
39958;SDS011;25639;53.634;9.880;2023-04-15T12:00:15;12.70;;;9.40;;
39958;SDS011;25639;53.634;9.880;2023-04-15T12:02:41;15.25;;;9.57;;
39958;SDS011;25639;53.634;9.880;2023-04-15T12:05:07;17.50;;;10.70;;
39958;SDS011;25639;53.634;9.880;2023-04-15T12:07:56;17.55;;;10.75;;
39958;SDS011;25639;53.634;9.880;2023-04-15T12:10:25;15.68;;;10.05;;
39958;SDS011;25639;53.634;9.880;2023-04-15T12:12:51;15.20;;;9.15;;
39958;SDS011;25639;53.634;9.880;2023-04-15T12:15:20;16.73;;;9.50;;
39958;SDS011;25639;53.634;9.880;2023-04-15T12:17:47;13.60;;;9.02;;
39958;SDS011;25639;53.634;9.880;2023-04-15T12:20:12;15.75;;;9.55;;
39958;SDS011;25639;53.634;9.880;2023-04-15T12:22:37;13.50;;;9.55;;
39958;SDS011;25639;53.634;9.880;2023-04-15T12:25:03;18.63;;;9.80;;
39958;SDS011;25639;53.634;9.880;2023-04-15T12:27:30;14.02;;;9.55;;
39958;SDS011;25639;53.634;9.880;2023-04-15T12:30:05;16.27;;;10.00;;
39958;SDS011;25639;53.634;9.880;2023-04-15T12:32:33;13.38;;;9.50;;
39958;SDS011;25639;53.634;9.880;2023-04-15T12:34:59;16.30;;;9.50;;
39958;SDS011;25639;53.634;9.880;2023-04-15T12:37:25;15.75;;;10.10;;
39958;SDS011;25639;53.634;9.880;2023-04-15T12:39:51;14.25;;;9.77;;
39958;SDS011;25639;53.634;9.880;2023-04-15T12:42:17;13.13;;;9.63;;
39958;SDS011;25639;53.634;9.880;2023-04-15T12:44:43;14.68;;;9.73;;
39958;SDS011;25639;53.634;9.880;2023-04-15T12:47:09;15.80;;;9.90;;
39958;SDS011;25639;53.634;9.880;2023-04-15T12:49:35;18.33;;;10.18;;
39958;SDS011;25639;53.634;9.880;2023-04-15T12:52:01;18.25;;;9.75;;
39958;SDS011;25639;53.634;9.880;2023-04-15T12:54:28;17.77;;;10.70;;
39958;SDS011;25639;53.634;9.880;2023-04-15T12:56:56;15.10;;;10.52;;
39958;SDS011;25639;53.634;9.880;2023-04-15T12:59:22;15.18;;;10.10;;
39958;SDS011;25639;53.634;9.880;2023-04-15T13:01:48;16.13;;;10.50;;
39958;SDS011;25639;53.634;9.880;2023-04-15T13:04:14;16.05;;;10.73;;
39958;SDS011;25639;53.634;9.880;2023-04-15T13:06:40;19.38;;;10.60;;
39958;SDS011;25639;53.634;9.880;2023-04-15T13:09:05;15.63;;;11.25;;
39958;SDS011;25639;53.634;9.880;2023-04-15T13:11:31;19.67;;;11.88;;
39958;SDS011;25639;53.634;9.880;2023-04-15T13:14:01;15.60;;;11.07;;
39958;SDS011;25639;53.634;9.880;2023-04-15T13:16:31;14.95;;;10.95;;
39958;SDS011;25639;53.634;9.880;2023-04-15T13:19:00;18.20;;;11.23;;
39958;SDS011;25639;53.634;9.880;2023-04-15T13:21:26;17.60;;;10.65;;
39958;SDS011;25639;53.634;9.880;2023-04-15T13:23:52;17.42;;;11.05;;
39958;SDS011;25639;53.634;9.880;2023-04-15T13:26:17;17.17;;;11.20;;
39958;SDS011;25639;53.634;9.880;2023-04-15T13:28:43;24.00;;;10.60;;
39958;SDS011;25639;53.634;9.880;2023-04-15T13:31:08;17.13;;;10.50;;
39958;SDS011;25639;53.634;9.880;2023-04-15T13:33:33;15.43;;;10.35;;
39958;SDS011;25639;53.634;9.880;2023-04-15T13:35:59;14.13;;;10.48;;
39958;SDS011;25639;53.634;9.880;2023-04-15T13:38:24;14.80;;;9.15;;
39958;SDS011;25639;53.634;9.880;2023-04-15T13:40:50;13.23;;;9.52;;
39958;SDS011;25639;53.634;9.880;2023-04-15T13:43:15;16.80;;;9.98;;
39958;SDS011;25639;53.634;9.880;2023-04-15T13:45:41;15.30;;;9.48;;
39958;SDS011;25639;53.634;9.880;2023-04-15T13:48:07;15.95;;;9.73;;
39958;SDS011;25639;53.634;9.880;2023-04-15T13:50:32;15.13;;;9.15;;
39958;SDS011;25639;53.634;9.880;2023-04-15T13:52:57;14.05;;;8.80;;
39958;SDS011;25639;53.634;9.880;2023-04-15T13:55:22;11.52;;;8.45;;
39958;SDS011;25639;53.634;9.880;2023-04-15T13:57:48;13.57;;;9.27;;
39958;SDS011;25639;53.634;9.880;2023-04-15T14:00:14;14.60;;;9.65;;
39958;SDS011;25639;53.634;9.880;2023-04-15T14:02:39;13.13;;;8.88;;
39958;SDS011;25639;53.634;9.880;2023-04-15T14:05:06;15.57;;;9.85;;
39958;SDS011;25639;53.634;9.880;2023-04-15T14:07:31;13.88;;;9.57;;
39958;SDS011;25639;53.634;9.880;2023-04-15T14:09:56;14.30;;;9.13;;
39958;SDS011;25639;53.634;9.880;2023-04-15T14:12:22;13.15;;;9.77;;
39958;SDS011;25639;53.634;9.880;2023-04-15T14:14:47;14.10;;;9.68;;
39958;SDS011;25639;53.634;9.880;2023-04-15T14:17:12;16.35;;;9.68;;
39958;SDS011;25639;53.634;9.880;2023-04-15T14:19:38;15.48;;;9.35;;
39958;SDS011;25639;53.634;9.880;2023-04-15T14:22:03;15.13;;;10.30;;
39958;SDS011;25639;53.634;9.880;2023-04-15T14:24:29;15.88;;;10.30;;
39958;SDS011;25639;53.634;9.880;2023-04-15T14:26:54;16.42;;;10.35;;
39958;SDS011;25639;53.634;9.880;2023-04-15T14:29:21;16.70;;;10.45;;
39958;SDS011;25639;53.634;9.880;2023-04-15T14:31:46;16.38;;;11.07;;